createdAt,value
2022-10-26T00:00:25.973Z,994.35
2022-10-26T00:01:26.097Z,994.37
2022-10-26T00:02:26.045Z,994.36
2022-10-26T00:03:25.935Z,994.39
2022-10-26T00:04:25.936Z,994.34
2022-10-26T00:05:25.907Z,994.40
2022-10-26T00:06:25.893Z,994.39
2022-10-26T00:07:25.892Z,994.32
2022-10-26T00:08:25.878Z,994.37
2022-10-26T00:09:25.883Z,994.40
2022-10-26T00:10:28.274Z,994.35
2022-10-26T00:11:26.844Z,994.32
2022-10-26T00:12:25.846Z,994.39
2022-10-26T00:13:25.823Z,994.34
2022-10-26T00:14:25.828Z,994.32
2022-10-26T00:15:25.800Z,994.33
2022-10-26T00:16:25.796Z,994.36
2022-10-26T00:17:25.779Z,994.35
2022-10-26T00:18:25.770Z,994.36
2022-10-26T00:19:25.783Z,994.37
2022-10-26T00:20:25.760Z,994.33
2022-10-26T00:21:25.746Z,994.41
2022-10-26T00:22:25.751Z,994.39
2022-10-26T00:23:25.761Z,994.40
2022-10-26T00:24:25.742Z,994.40
2022-10-26T00:25:25.710Z,994.39
2022-10-26T00:26:25.711Z,994.30
2022-10-26T00:27:25.684Z,994.37
2022-10-26T00:28:25.702Z,994.37
2022-10-26T00:29:25.684Z,994.33
2022-10-26T00:30:25.656Z,994.41
2022-10-26T00:31:25.671Z,994.35
2022-10-26T00:32:25.646Z,994.35
2022-10-26T00:33:25.634Z,994.42
2022-10-26T00:34:25.631Z,994.42
2022-10-26T00:35:44.637Z,994.38
2022-10-26T00:36:27.606Z,994.45
2022-10-26T00:37:25.589Z,994.34
2022-10-26T00:38:25.585Z,994.38
2022-10-26T00:39:25.597Z,994.37
2022-10-26T00:40:25.562Z,994.35
2022-10-26T00:41:25.540Z,994.33
2022-10-26T00:42:25.547Z,994.36
2022-10-26T00:43:25.532Z,994.34
2022-10-26T00:44:25.539Z,994.31
2022-10-26T00:45:25.585Z,994.34
2022-10-26T00:46:25.503Z,994.31
2022-10-26T00:47:25.487Z,994.32
2022-10-26T00:48:25.479Z,994.32
2022-10-26T00:49:25.492Z,994.28
2022-10-26T00:50:25.453Z,994.31
2022-10-26T00:51:25.455Z,994.32
2022-10-26T00:52:25.437Z,994.23
2022-10-26T00:53:25.426Z,994.26
2022-10-26T00:54:25.440Z,994.27
2022-10-26T00:55:25.422Z,994.20
2022-10-26T00:56:25.390Z,994.26
2022-10-26T00:57:25.408Z,994.24
2022-10-26T00:58:25.375Z,994.23
2022-10-26T00:59:25.383Z,994.24
2022-10-26T01:00:25.348Z,994.25
2022-10-26T01:01:25.389Z,994.22
2022-10-26T01:02:25.333Z,994.17
2022-10-26T01:03:25.567Z,994.24
2022-10-26T01:04:25.319Z,994.21
2022-10-26T01:05:25.298Z,994.17
2022-10-26T01:06:25.295Z,994.17
2022-10-26T01:07:25.282Z,994.20
2022-10-26T01:08:25.265Z,994.19
2022-10-26T01:09:25.286Z,994.17
2022-10-26T01:10:25.251Z,994.17
2022-10-26T01:11:25.238Z,994.15
2022-10-26T01:12:25.225Z,994.14
2022-10-26T01:13:25.221Z,994.11
2022-10-26T01:14:25.224Z,994.12
2022-10-26T01:15:25.209Z,994.10
2022-10-26T01:16:25.201Z,994.10
2022-10-26T01:17:25.177Z,994.01
2022-10-26T01:18:25.170Z,994.06
2022-10-26T01:19:25.183Z,994.05
2022-10-26T01:20:25.141Z,994.04
2022-10-26T01:21:25.142Z,994.05
2022-10-26T01:22:25.128Z,994.08
2022-10-26T01:23:25.117Z,994.07
2022-10-26T01:24:25.125Z,994.05
2022-10-26T01:25:25.102Z,994.04
2022-10-26T01:26:25.092Z,994.03
2022-10-26T01:27:25.085Z,994.01
2022-10-26T01:28:25.074Z,993.95
2022-10-26T01:29:25.077Z,993.98
2022-10-26T01:30:25.077Z,993.92
2022-10-26T01:31:25.049Z,993.93
2022-10-26T01:32:25.033Z,993.95
2022-10-26T01:33:25.029Z,993.95
2022-10-26T01:34:25.036Z,993.95
2022-10-26T01:35:25.008Z,993.98
2022-10-26T01:36:25.065Z,993.90
2022-10-26T01:37:24.991Z,993.91
2022-10-26T01:38:24.978Z,993.84
2022-10-26T01:39:24.990Z,993.85
2022-10-26T01:40:24.963Z,993.83
2022-10-26T01:41:24.965Z,993.82
2022-10-26T01:42:24.930Z,993.87
2022-10-26T01:43:24.916Z,993.80
2022-10-26T01:44:24.935Z,993.81
2022-10-26T01:45:24.901Z,993.84
2022-10-26T01:46:24.899Z,993.80
2022-10-26T01:47:24.886Z,993.74
2022-10-26T01:48:24.869Z,993.75
2022-10-26T01:49:24.880Z,993.73
2022-10-26T01:50:24.848Z,993.72
2022-10-26T01:51:24.831Z,993.72
2022-10-26T01:52:24.830Z,993.70
2022-10-26T01:53:24.823Z,993.70
2022-10-26T01:54:24.867Z,993.72
2022-10-26T01:55:24.805Z,993.71
2022-10-26T01:56:24.930Z,993.74
2022-10-26T01:57:24.776Z,993.80
2022-10-26T01:58:24.769Z,993.74
2022-10-26T01:59:24.783Z,993.73
2022-10-26T02:00:24.755Z,993.72
2022-10-26T02:01:24.809Z,993.67
2022-10-26T02:02:24.728Z,993.70
2022-10-26T02:03:24.750Z,993.63
2022-10-26T02:05:25.698Z,993.61
2022-10-26T02:06:24.687Z,993.66
2022-10-26T02:07:24.675Z,993.56
2022-10-26T02:08:24.664Z,993.64
2022-10-26T02:09:24.674Z,993.57
2022-10-26T02:10:24.642Z,993.56
2022-10-26T02:11:24.675Z,993.60
2022-10-26T02:12:24.628Z,993.55
2022-10-26T02:13:56.515Z,993.60
2022-10-26T02:14:24.627Z,993.63
2022-10-26T02:15:24.600Z,993.59
2022-10-26T02:16:24.590Z,993.55
2022-10-26T02:17:24.581Z,993.52
2022-10-26T02:18:24.572Z,993.53
2022-10-26T02:19:24.581Z,993.57
2022-10-26T02:20:24.552Z,993.57
2022-10-26T02:21:24.536Z,993.58
2022-10-26T02:22:25.527Z,993.60
2022-10-26T02:23:24.515Z,993.49
2022-10-26T02:24:24.525Z,993.58
2022-10-26T02:25:24.502Z,993.54
2022-10-26T02:26:24.510Z,993.56
2022-10-26T02:27:24.479Z,993.56
2022-10-26T02:28:24.471Z,993.51
2022-10-26T02:29:24.494Z,993.57
2022-10-26T02:30:24.452Z,993.52
2022-10-26T02:31:24.439Z,993.59
2022-10-26T02:32:24.435Z,993.56
2022-10-26T02:33:24.423Z,993.53
2022-10-26T02:34:24.427Z,993.48
2022-10-26T02:35:24.397Z,993.41
2022-10-26T02:36:24.394Z,993.48
2022-10-26T02:37:24.379Z,993.42
2022-10-26T02:38:24.412Z,993.40
2022-10-26T02:39:24.385Z,993.39
2022-10-26T02:40:24.350Z,993.37
2022-10-26T02:41:24.335Z,993.37
2022-10-26T02:42:24.331Z,993.34
2022-10-26T02:43:24.352Z,993.34
2022-10-26T02:44:24.342Z,993.34
2022-10-26T02:45:24.298Z,993.33
2022-10-26T02:46:24.290Z,993.32
2022-10-26T02:47:24.279Z,993.29
2022-10-26T02:48:24.263Z,993.27
2022-10-26T02:49:24.271Z,993.21
2022-10-26T02:50:24.247Z,993.23
2022-10-26T02:51:24.237Z,993.25
2022-10-26T02:52:24.231Z,993.28
2022-10-26T02:53:24.216Z,993.28
2022-10-26T02:54:24.342Z,993.26
2022-10-26T02:55:24.192Z,993.26
2022-10-26T02:56:24.203Z,993.27
2022-10-26T02:57:24.187Z,993.22
2022-10-26T02:58:24.167Z,993.26
2022-10-26T02:59:24.177Z,993.28
2022-10-26T03:00:24.153Z,993.20
2022-10-26T03:01:24.181Z,993.21
2022-10-26T03:02:24.126Z,993.21
2022-10-26T03:03:24.104Z,993.18
2022-10-26T03:04:24.235Z,993.19
2022-10-26T03:05:24.100Z,993.24
2022-10-26T03:06:24.093Z,993.21
2022-10-26T03:07:24.088Z,993.25
2022-10-26T03:08:24.152Z,993.20
2022-10-26T03:09:25.527Z,993.24
2022-10-26T03:10:24.048Z,993.23
2022-10-26T03:11:24.049Z,993.27
2022-10-26T03:12:24.038Z,993.22
2022-10-26T03:13:24.026Z,993.22
2022-10-26T03:14:24.032Z,993.23
2022-10-26T03:15:24.001Z,993.26
2022-10-26T03:16:23.987Z,993.30
2022-10-26T03:17:23.984Z,993.26
2022-10-26T03:18:23.972Z,993.22
2022-10-26T03:19:23.984Z,993.24
2022-10-26T03:20:23.952Z,993.27
2022-10-26T03:21:23.944Z,993.29
2022-10-26T03:22:23.930Z,993.26
2022-10-26T03:23:23.915Z,993.30
2022-10-26T03:24:23.909Z,993.33
2022-10-26T03:25:23.918Z,993.31
2022-10-26T03:26:23.888Z,993.28
2022-10-26T03:27:23.877Z,993.30
2022-10-26T03:28:23.863Z,993.31
2022-10-26T03:29:23.853Z,993.32
2022-10-26T03:30:23.862Z,993.25
2022-10-26T03:31:23.824Z,993.28
2022-10-26T03:32:23.833Z,993.26
2022-10-26T03:33:27.008Z,993.29
2022-10-26T03:34:23.806Z,993.29
2022-10-26T03:35:23.813Z,993.24
2022-10-26T03:36:23.789Z,993.28
2022-10-26T03:37:23.782Z,993.30
2022-10-26T03:38:23.775Z,993.25
2022-10-26T03:39:23.753Z,993.23
2022-10-26T03:40:23.761Z,993.25
2022-10-26T03:41:23.734Z,993.21
2022-10-26T03:42:23.729Z,993.23
2022-10-26T03:43:23.720Z,993.27
2022-10-26T03:44:23.717Z,993.22
2022-10-26T03:45:23.724Z,993.23
2022-10-26T03:46:23.686Z,993.24
2022-10-26T03:47:23.683Z,993.14
2022-10-26T03:48:23.675Z,993.18
2022-10-26T03:49:23.661Z,993.13
2022-10-26T03:50:23.676Z,993.21
2022-10-26T03:51:23.634Z,993.18
2022-10-26T03:52:23.628Z,993.16
2022-10-26T03:53:23.614Z,993.19
2022-10-26T03:54:23.608Z,993.14
2022-10-26T03:55:23.612Z,993.22
2022-10-26T03:56:23.591Z,993.19
2022-10-26T03:57:23.570Z,993.20
2022-10-26T03:58:23.563Z,993.19
2022-10-26T03:59:23.548Z,993.12
2022-10-26T04:00:23.563Z,993.14
2022-10-26T04:01:23.578Z,993.17
2022-10-26T04:02:23.580Z,993.15
2022-10-26T04:03:23.520Z,993.20
2022-10-26T04:04:23.582Z,993.20
2022-10-26T04:05:23.499Z,993.18
2022-10-26T04:06:24.484Z,993.21
2022-10-26T04:07:23.469Z,993.19
2022-10-26T04:08:23.467Z,993.24
2022-10-26T04:09:23.465Z,993.20
2022-10-26T04:10:23.479Z,993.20
2022-10-26T04:11:23.426Z,993.17
2022-10-26T04:12:23.433Z,993.14
2022-10-26T04:13:23.418Z,993.18
2022-10-26T04:14:23.408Z,993.18
2022-10-26T04:15:23.421Z,993.11
2022-10-26T04:16:23.395Z,993.14
2022-10-26T04:17:23.391Z,993.07
2022-10-26T04:18:23.369Z,993.07
2022-10-26T04:19:23.354Z,993.09
2022-10-26T04:20:23.373Z,993.13
2022-10-26T04:21:23.346Z,993.15
2022-10-26T04:22:23.351Z,993.11
2022-10-26T04:24:23.313Z,993.15
2022-10-26T04:25:23.321Z,993.18
2022-10-26T04:26:23.292Z,993.14
2022-10-26T04:27:23.274Z,993.12
2022-10-26T04:28:23.268Z,993.16
2022-10-26T04:29:23.265Z,993.20
2022-10-26T04:30:23.273Z,993.20
2022-10-26T04:31:23.225Z,993.20
2022-10-26T04:32:23.227Z,993.19
2022-10-26T04:33:23.213Z,993.19
2022-10-26T04:34:23.210Z,993.26
2022-10-26T04:35:23.213Z,993.22
2022-10-26T04:36:23.185Z,993.23
2022-10-26T04:37:23.175Z,993.23
2022-10-26T04:38:23.173Z,993.25
2022-10-26T04:39:23.142Z,993.21
2022-10-26T04:40:23.169Z,993.23
2022-10-26T04:41:23.130Z,993.22
2022-10-26T04:42:23.128Z,993.18
2022-10-26T04:43:23.115Z,993.19
2022-10-26T04:44:23.107Z,993.21
2022-10-26T04:45:23.116Z,993.22
2022-10-26T04:46:23.090Z,993.24
2022-10-26T04:47:23.066Z,993.23
2022-10-26T04:48:23.062Z,993.26
2022-10-26T04:49:23.056Z,993.21
2022-10-26T04:50:26.187Z,993.22
2022-10-26T04:51:23.038Z,993.16
2022-10-26T04:52:23.031Z,993.17
2022-10-26T04:53:23.018Z,993.20
2022-10-26T04:54:23.012Z,993.19
2022-10-26T04:55:23.010Z,993.21
2022-10-26T04:56:22.987Z,993.22
2022-10-26T04:57:22.981Z,993.23
2022-10-26T04:58:22.963Z,993.22
2022-10-26T04:59:22.952Z,993.23
2022-10-26T05:00:22.962Z,993.20
2022-10-26T05:01:23.016Z,993.22
2022-10-26T05:02:22.987Z,993.21
2022-10-26T05:03:22.911Z,993.18
2022-10-26T05:04:22.899Z,993.25
2022-10-26T05:05:22.902Z,993.22
2022-10-26T05:06:22.888Z,993.24
2022-10-26T05:07:22.866Z,993.23
2022-10-26T05:08:22.860Z,993.27
2022-10-26T05:09:22.845Z,993.28
2022-10-26T05:10:22.848Z,993.23
2022-10-26T05:11:22.826Z,993.20
2022-10-26T05:12:22.812Z,993.22
2022-10-26T05:13:22.914Z,993.22
2022-10-26T05:14:22.782Z,993.26
2022-10-26T05:15:22.802Z,993.26
2022-10-26T05:16:22.782Z,993.20
2022-10-26T05:17:22.771Z,993.17
2022-10-26T05:18:22.748Z,993.25
2022-10-26T05:19:22.745Z,993.24
2022-10-26T05:20:22.741Z,993.22
2022-10-26T05:21:22.720Z,993.29
2022-10-26T05:22:22.706Z,993.22
2022-10-26T05:23:22.701Z,993.23
2022-10-26T05:24:22.687Z,993.23
2022-10-26T05:25:22.705Z,993.22
2022-10-26T05:26:22.679Z,993.22
2022-10-26T05:27:22.678Z,993.22
2022-10-26T05:28:22.647Z,993.21
2022-10-26T05:29:22.665Z,993.24
2022-10-26T05:30:22.645Z,993.19
2022-10-26T05:31:23.621Z,993.25
2022-10-26T05:32:22.619Z,993.25
2022-10-26T05:33:22.610Z,993.24
2022-10-26T05:34:22.596Z,993.28
2022-10-26T05:35:22.608Z,993.25
2022-10-26T05:36:22.582Z,993.25
2022-10-26T05:37:23.563Z,993.29
2022-10-26T05:38:22.601Z,993.29
2022-10-26T05:39:22.542Z,993.26
2022-10-26T05:40:22.550Z,993.30
2022-10-26T05:41:22.522Z,993.25
2022-10-26T05:42:22.511Z,993.25
2022-10-26T05:43:22.498Z,993.27
2022-10-26T05:44:22.493Z,993.26
2022-10-26T05:45:22.512Z,993.32
2022-10-26T05:46:23.470Z,993.33
2022-10-26T05:47:22.469Z,993.29
2022-10-26T05:48:22.467Z,993.35
2022-10-26T05:49:22.459Z,993.36
2022-10-26T05:50:22.452Z,993.40
2022-10-26T05:51:22.434Z,993.44
2022-10-26T05:52:22.428Z,993.42
2022-10-26T05:53:22.419Z,993.40
2022-10-26T05:54:22.406Z,993.35
2022-10-26T05:55:22.413Z,993.38
2022-10-26T05:56:22.387Z,993.36
2022-10-26T05:57:22.370Z,993.40
2022-10-26T05:58:22.375Z,993.39
2022-10-26T05:59:22.360Z,993.36
2022-10-26T06:00:22.374Z,993.35
2022-10-26T06:01:22.446Z,993.38
2022-10-26T06:02:22.426Z,993.41
2022-10-26T06:03:22.340Z,993.34
2022-10-26T06:04:22.299Z,993.37
2022-10-26T06:05:22.352Z,993.36
2022-10-26T06:06:22.285Z,993.37
2022-10-26T06:07:22.274Z,993.44
2022-10-26T06:08:22.273Z,993.41
2022-10-26T06:09:22.254Z,993.46
2022-10-26T06:10:22.271Z,993.41
2022-10-26T06:11:22.235Z,993.43
2022-10-26T06:12:22.253Z,993.46
2022-10-26T06:13:22.226Z,993.52
2022-10-26T06:14:22.209Z,993.54
2022-10-26T06:15:22.223Z,993.55
2022-10-26T06:16:22.189Z,993.55
2022-10-26T06:17:22.180Z,993.54
2022-10-26T06:18:22.179Z,993.56
2022-10-26T06:19:22.151Z,993.59
2022-10-26T06:20:22.198Z,993.54
2022-10-26T06:21:22.136Z,993.57
2022-10-26T06:22:22.135Z,993.64
2022-10-26T06:23:22.117Z,993.61
2022-10-26T06:24:22.186Z,993.61
2022-10-26T06:25:22.106Z,993.69
2022-10-26T06:26:22.095Z,993.68
2022-10-26T06:27:22.081Z,993.72
2022-10-26T06:28:22.158Z,993.61
2022-10-26T06:29:22.056Z,993.66
2022-10-26T06:30:22.066Z,993.70
2022-10-26T06:31:22.124Z,993.69
2022-10-26T06:32:22.033Z,993.73
2022-10-26T06:33:29.448Z,993.72
2022-10-26T06:34:24.014Z,993.80
2022-10-26T06:35:22.022Z,993.72
2022-10-26T06:36:21.988Z,993.67
2022-10-26T06:37:21.965Z,993.71
2022-10-26T06:38:21.960Z,993.64
2022-10-26T06:39:21.959Z,993.71
2022-10-26T06:40:21.979Z,993.64
2022-10-26T06:41:21.921Z,993.71
2022-10-26T06:42:21.949Z,993.70
2022-10-26T06:43:21.920Z,993.68
2022-10-26T06:44:21.903Z,993.71
2022-10-26T06:45:21.907Z,993.67
2022-10-26T06:46:21.883Z,993.71
2022-10-26T06:47:23.554Z,993.66
2022-10-26T06:48:21.861Z,993.64
2022-10-26T06:49:21.855Z,993.69
2022-10-26T06:50:21.866Z,993.72
2022-10-26T06:51:21.829Z,993.68
2022-10-26T06:52:21.822Z,993.66
2022-10-26T06:53:21.820Z,993.68
2022-10-26T06:54:21.802Z,993.68
2022-10-26T06:55:21.817Z,993.77
2022-10-26T06:56:21.790Z,993.75
2022-10-26T06:57:21.777Z,993.71
2022-10-26T06:58:21.772Z,993.70
2022-10-26T06:59:21.760Z,993.64
2022-10-26T07:00:21.828Z,993.62
2022-10-26T07:01:21.858Z,993.72
2022-10-26T07:02:21.816Z,993.65
2022-10-26T07:03:21.727Z,993.61
2022-10-26T07:04:21.713Z,993.63
2022-10-26T07:05:21.756Z,993.61
2022-10-26T07:06:21.692Z,993.65
2022-10-26T07:07:21.674Z,993.64
2022-10-26T07:08:21.672Z,993.68
2022-10-26T07:09:21.667Z,993.70
2022-10-26T07:10:21.674Z,993.70
2022-10-26T07:11:21.636Z,993.66
2022-10-26T07:12:21.632Z,993.74
2022-10-26T07:13:21.630Z,993.71
2022-10-26T07:14:21.607Z,993.63
2022-10-26T07:15:21.611Z,993.68
2022-10-26T07:16:21.583Z,993.64
2022-10-26T07:17:21.571Z,993.64
2022-10-26T07:18:21.561Z,993.64
2022-10-26T07:19:21.555Z,993.71
2022-10-26T07:20:21.570Z,993.67
2022-10-26T07:21:21.535Z,993.75
2022-10-26T07:22:21.528Z,993.74
2022-10-26T07:23:21.562Z,993.79
2022-10-26T07:24:21.508Z,993.77
2022-10-26T07:25:21.508Z,993.77
2022-10-26T07:26:21.486Z,993.83
2022-10-26T07:27:21.473Z,993.80
2022-10-26T07:28:21.469Z,993.78
2022-10-26T07:29:21.449Z,993.79
2022-10-26T07:30:21.485Z,993.82
2022-10-26T07:31:21.430Z,993.77
2022-10-26T07:32:21.423Z,993.76
2022-10-26T07:33:21.401Z,993.76
2022-10-26T07:34:21.403Z,993.77
2022-10-26T07:35:21.427Z,993.79
2022-10-26T07:36:21.384Z,993.76
2022-10-26T07:37:21.377Z,993.80
2022-10-26T07:38:21.363Z,993.81
2022-10-26T07:39:21.389Z,993.82
2022-10-26T07:41:21.333Z,993.87
2022-10-26T07:42:21.351Z,993.80
2022-10-26T07:43:21.319Z,993.87
2022-10-26T07:44:21.310Z,993.82
2022-10-26T07:45:21.313Z,993.85
2022-10-26T07:46:21.289Z,993.83
2022-10-26T07:47:21.273Z,993.79
2022-10-26T07:48:21.255Z,993.83
2022-10-26T07:49:23.733Z,993.84
2022-10-26T07:50:21.264Z,993.83
2022-10-26T07:51:21.260Z,993.87
2022-10-26T07:52:21.218Z,993.83
2022-10-26T07:53:26.728Z,993.85
2022-10-26T07:54:22.199Z,993.87
2022-10-26T07:55:21.215Z,993.87
2022-10-26T07:56:21.181Z,993.83
2022-10-26T07:57:21.158Z,993.78
2022-10-26T07:58:21.159Z,993.82
2022-10-26T07:59:21.147Z,993.78
2022-10-26T08:00:21.159Z,993.85
2022-10-26T08:01:21.193Z,993.80
2022-10-26T08:02:21.118Z,993.85
2022-10-26T08:03:21.104Z,993.83
2022-10-26T08:04:21.095Z,993.88
2022-10-26T08:05:21.156Z,993.95
2022-10-26T08:06:21.079Z,993.88
2022-10-26T08:07:21.072Z,993.88
2022-10-26T08:08:21.054Z,993.84
2022-10-26T08:09:21.028Z,993.91
2022-10-26T08:10:21.104Z,993.89
2022-10-26T08:11:21.014Z,993.91
2022-10-26T08:12:21.007Z,993.93
2022-10-26T08:13:20.987Z,993.91
2022-10-26T08:14:46.814Z,993.91
2022-10-26T08:15:20.985Z,993.92
2022-10-26T08:16:20.965Z,993.98
2022-10-26T08:17:20.956Z,993.88
2022-10-26T08:18:20.941Z,993.85
2022-10-26T08:19:20.927Z,993.95
2022-10-26T08:20:21.059Z,994.01
2022-10-26T08:21:35.747Z,993.98
2022-10-26T08:22:22.900Z,994.04
2022-10-26T08:23:20.888Z,994.00
2022-10-26T08:24:20.883Z,994.02
2022-10-26T08:25:21.546Z,994.11
2022-10-26T08:26:20.862Z,994.08
2022-10-26T08:27:20.859Z,994.04
2022-10-26T08:28:20.836Z,994.10
2022-10-26T08:29:20.841Z,994.08
2022-10-26T08:30:21.071Z,994.06
2022-10-26T08:31:20.831Z,994.02
2022-10-26T08:32:20.810Z,994.05
2022-10-26T08:33:20.803Z,994.06
2022-10-26T08:34:20.786Z,994.04
2022-10-26T08:35:20.799Z,994.05
2022-10-26T08:36:20.768Z,994.10
2022-10-26T08:37:20.748Z,994.03
2022-10-26T08:38:20.748Z,994.08
2022-10-26T08:39:20.734Z,994.05
2022-10-26T08:40:20.781Z,994.09
2022-10-26T08:41:20.707Z,994.10
2022-10-26T08:42:20.703Z,994.13
2022-10-26T08:43:20.677Z,994.05
2022-10-26T08:44:20.680Z,994.04
2022-10-26T08:45:23.241Z,994.06
2022-10-26T08:46:21.667Z,994.04
2022-10-26T08:47:20.658Z,994.04
2022-10-26T08:48:20.641Z,994.01
2022-10-26T08:49:20.643Z,994.00
2022-10-26T08:50:20.703Z,993.93
2022-10-26T08:51:20.618Z,993.99
2022-10-26T08:52:20.612Z,993.99
2022-10-26T08:53:20.607Z,993.95
2022-10-26T08:54:20.623Z,993.90
2022-10-26T08:55:20.599Z,993.97
2022-10-26T08:56:20.579Z,993.96
2022-10-26T08:57:20.566Z,993.97
2022-10-26T08:58:20.582Z,994.00
2022-10-26T08:59:20.559Z,994.04
2022-10-26T09:00:20.571Z,993.98
2022-10-26T09:01:20.602Z,993.96
2022-10-26T09:02:20.518Z,993.88
2022-10-26T09:03:20.495Z,993.91
2022-10-26T09:04:20.497Z,993.93
2022-10-26T09:05:20.507Z,993.93
2022-10-26T09:06:20.481Z,993.91
2022-10-26T09:07:20.456Z,993.94
2022-10-26T09:08:20.452Z,993.98
2022-10-26T09:09:20.444Z,993.92
2022-10-26T09:10:20.516Z,993.98
2022-10-26T09:11:20.419Z,993.98
2022-10-26T09:12:20.414Z,993.90
2022-10-26T09:13:20.410Z,993.99
2022-10-26T09:14:20.393Z,993.99
2022-10-26T09:15:20.395Z,994.02
2022-10-26T09:16:20.376Z,994.08
2022-10-26T09:17:20.364Z,994.01
2022-10-26T09:18:20.355Z,994.04
2022-10-26T09:19:20.329Z,994.04
2022-10-26T09:20:20.358Z,994.07
2022-10-26T09:21:20.315Z,994.01
2022-10-26T09:22:20.313Z,994.00
2022-10-26T09:23:20.293Z,994.04
2022-10-26T09:24:20.288Z,994.09
2022-10-26T09:25:20.300Z,994.05
2022-10-26T09:26:20.282Z,994.04
2022-10-26T09:27:20.259Z,994.08
2022-10-26T09:28:20.251Z,994.08
2022-10-26T09:29:20.248Z,994.10
2022-10-26T09:30:20.261Z,994.15
2022-10-26T09:31:20.217Z,994.12
2022-10-26T09:32:20.208Z,994.14
2022-10-26T09:33:20.201Z,994.09
2022-10-26T09:34:20.185Z,994.10
2022-10-26T09:35:20.227Z,994.13
2022-10-26T09:36:20.164Z,994.06
2022-10-26T09:37:20.160Z,994.06
2022-10-26T09:38:20.168Z,994.05
2022-10-26T09:39:20.142Z,994.03
2022-10-26T09:40:20.142Z,994.05
2022-10-26T09:41:20.112Z,993.99
2022-10-26T09:42:20.107Z,994.03
2022-10-26T09:43:20.097Z,994.11
2022-10-26T09:44:20.091Z,994.13
2022-10-26T09:45:20.097Z,994.11
2022-10-26T09:46:20.060Z,994.11
2022-10-26T09:47:20.062Z,994.15
2022-10-26T09:48:21.044Z,994.20
2022-10-26T09:49:20.038Z,994.22
2022-10-26T09:50:20.043Z,994.27
2022-10-26T09:51:20.015Z,994.35
2022-10-26T09:52:20.009Z,994.31
2022-10-26T09:53:20.008Z,994.32
2022-10-26T09:54:19.980Z,994.36
2022-10-26T09:55:19.989Z,994.32
2022-10-26T09:56:19.959Z,994.31
2022-10-26T09:57:19.958Z,994.30
2022-10-26T09:58:19.946Z,994.37
2022-10-26T09:59:19.919Z,994.34
2022-10-26T10:00:20.078Z,994.39
2022-10-26T10:01:20.006Z,994.30
2022-10-26T10:02:19.962Z,994.38
2022-10-26T10:03:19.938Z,994.39
2022-10-26T10:04:19.883Z,994.37
2022-10-26T10:05:27.534Z,994.43
2022-10-26T10:06:21.849Z,994.39
2022-10-26T10:07:20.844Z,994.41
2022-10-26T10:08:19.831Z,994.34
2022-10-26T10:09:19.828Z,994.35
2022-10-26T10:10:19.834Z,994.40
2022-10-26T10:11:19.837Z,994.42
2022-10-26T10:12:19.791Z,994.36
2022-10-26T10:13:19.790Z,994.35
2022-10-26T10:14:19.778Z,994.37
2022-10-26T10:15:19.779Z,994.36
2022-10-26T10:16:19.754Z,994.29
2022-10-26T10:17:19.763Z,994.34
2022-10-26T10:18:19.735Z,994.33
2022-10-26T10:19:19.728Z,994.31
2022-10-26T10:20:19.731Z,994.27
2022-10-26T10:21:19.705Z,994.30
2022-10-26T10:22:19.689Z,994.29
2022-10-26T10:23:19.685Z,994.16
2022-10-26T10:24:19.672Z,994.11
2022-10-26T10:25:19.745Z,994.14
2022-10-26T10:26:19.649Z,994.10
2022-10-26T10:27:19.657Z,994.14
2022-10-26T10:29:19.625Z,994.15
2022-10-26T10:30:19.634Z,994.19
2022-10-26T10:31:19.608Z,994.19
2022-10-26T10:32:19.595Z,994.14
2022-10-26T10:33:19.580Z,994.18
2022-10-26T10:34:19.565Z,994.21
2022-10-26T10:35:19.583Z,994.23
2022-10-26T10:36:19.548Z,994.19
2022-10-26T10:37:19.544Z,994.23
2022-10-26T10:38:19.526Z,994.22
2022-10-26T10:39:19.551Z,994.25
2022-10-26T10:40:19.587Z,994.29
2022-10-26T10:41:19.516Z,994.33
2022-10-26T10:42:19.481Z,994.34
2022-10-26T10:43:19.485Z,994.41
2022-10-26T10:44:19.474Z,994.41
2022-10-26T10:45:19.466Z,994.39
2022-10-26T10:46:19.474Z,994.41
2022-10-26T10:47:19.459Z,994.47
2022-10-26T10:48:19.434Z,994.47
2022-10-26T10:49:19.430Z,994.46
2022-10-26T10:50:19.417Z,994.50
2022-10-26T10:51:19.420Z,994.55
2022-10-26T10:52:19.390Z,994.55
2022-10-26T10:53:19.429Z,994.53
2022-10-26T10:54:19.382Z,994.54
2022-10-26T10:55:19.371Z,994.53
2022-10-26T10:56:20.127Z,994.56
2022-10-26T10:57:19.347Z,994.59
2022-10-26T10:58:19.338Z,994.52
2022-10-26T10:59:19.346Z,994.52
2022-10-26T11:00:19.326Z,994.48
2022-10-26T11:01:19.399Z,994.53
2022-10-26T11:02:19.451Z,994.53
2022-10-26T11:03:23.329Z,994.56
2022-10-26T11:04:21.287Z,994.58
2022-10-26T11:05:22.062Z,994.61
2022-10-26T11:06:20.273Z,994.63
2022-10-26T11:07:19.243Z,994.60
2022-10-26T11:08:19.236Z,994.67
2022-10-26T11:09:19.227Z,994.61
2022-10-26T11:10:19.210Z,994.65
2022-10-26T11:11:19.219Z,994.61
2022-10-26T11:12:19.200Z,994.59
2022-10-26T11:13:19.184Z,994.55
2022-10-26T11:14:19.166Z,994.53
2022-10-26T11:15:19.168Z,994.52
2022-10-26T11:16:19.177Z,994.52
2022-10-26T11:17:19.134Z,994.49
2022-10-26T11:18:19.136Z,994.46
2022-10-26T11:19:19.127Z,994.49
2022-10-26T11:20:19.116Z,994.41
2022-10-26T11:21:19.106Z,994.44
2022-10-26T11:22:19.095Z,994.42
2022-10-26T11:23:19.071Z,994.45
2022-10-26T11:24:20.077Z,994.43
2022-10-26T11:25:19.065Z,994.45
2022-10-26T11:26:19.065Z,994.45
2022-10-26T11:27:19.039Z,994.41
2022-10-26T11:28:19.027Z,994.47
2022-10-26T11:29:19.030Z,994.47
2022-10-26T11:30:19.013Z,994.48
2022-10-26T11:31:19.018Z,994.46
2022-10-26T11:32:18.991Z,994.43
2022-10-26T11:33:18.982Z,994.43
2022-10-26T11:34:18.976Z,994.42
2022-10-26T11:35:18.960Z,994.41
2022-10-26T11:36:21.187Z,994.37
2022-10-26T11:37:18.944Z,994.39
2022-10-26T11:38:27.942Z,994.39
2022-10-26T11:39:19.914Z,994.38
2022-10-26T11:40:18.905Z,994.39
2022-10-26T11:41:18.909Z,994.42
2022-10-26T11:42:18.887Z,994.41
2022-10-26T11:43:18.905Z,994.44
2022-10-26T11:44:18.867Z,994.47
2022-10-26T11:45:18.859Z,994.46
2022-10-26T11:46:19.337Z,994.46
2022-10-26T11:47:18.831Z,994.49
2022-10-26T11:48:18.839Z,994.50
2022-10-26T11:49:18.813Z,994.54
2022-10-26T11:50:18.866Z,994.52
2022-10-26T11:51:18.852Z,994.48
2022-10-26T11:52:18.787Z,994.52
2022-10-26T11:53:18.755Z,994.49
2022-10-26T11:54:18.786Z,994.46
2022-10-26T11:55:18.749Z,994.38
2022-10-26T11:56:18.757Z,994.33
2022-10-26T11:57:18.715Z,994.35
2022-10-26T11:58:18.720Z,994.36
2022-10-26T11:59:18.708Z,994.32
2022-10-26T12:00:18.695Z,994.37
2022-10-26T12:01:18.764Z,994.41
2022-10-26T12:02:18.666Z,994.49
2022-10-26T12:03:18.659Z,994.56
2022-10-26T12:04:18.652Z,994.53
2022-10-26T12:05:18.643Z,994.47
2022-10-26T12:06:18.653Z,994.52
2022-10-26T12:07:18.627Z,994.45
2022-10-26T12:08:18.613Z,994.40
2022-10-26T12:09:18.593Z,994.33
2022-10-26T12:10:22.981Z,994.41
2022-10-26T12:11:20.587Z,994.36
2022-10-26T12:12:18.630Z,994.33
2022-10-26T12:13:18.567Z,994.28
2022-10-26T12:14:18.559Z,994.40
2022-10-26T12:15:18.554Z,994.38
2022-10-26T12:16:18.550Z,994.42
2022-10-26T12:17:18.523Z,994.42
2022-10-26T12:18:23.396Z,994.34
2022-10-26T12:19:20.565Z,994.37
2022-10-26T12:20:18.531Z,994.47
2022-10-26T12:21:18.489Z,994.50
2022-10-26T12:22:18.485Z,994.46
2022-10-26T12:23:28.108Z,994.41
2022-10-26T12:24:20.471Z,994.50
2022-10-26T12:25:18.442Z,994.51
2022-10-26T12:26:18.455Z,994.47
2022-10-26T12:27:18.431Z,994.49
2022-10-26T12:28:18.422Z,994.50
2022-10-26T12:29:18.403Z,994.51
2022-10-26T12:30:18.398Z,994.51
2022-10-26T12:31:18.473Z,994.52
2022-10-26T12:32:18.376Z,994.48